Al Azamiyah, Iraq
Current Conditions -  °F | °C
As of 11:00 AM on Thursday 27 Nov 2014 (Local Time) from ORBI Reporting Station
Haze Haze  
Wind Chill: 59°   Ceiling: Unl
Heat Index: 59°   Visibility: 3mi
Dew Point: 52°   Wind: 9mph
Humidity: 77%   Direction: 160°SSE
Pressure: 30.03"   Gusts: NA
Location:  33.38°N, 44.37°E
Report Text: ORBI 270800Z 16008KT 5000 BR FEW040 SCT100 15/11 Q1017 NOSIG
Loading
Personal Weather Stations






























Interactive Weather Map New forecast layout! Learn more

10-Day Weather Forecast

Advertisements
Track Severe Weather on mobile